sensor_id;sensor_type;location;lat;lon;timestamp;P1;durP1;ratioP1;P2;durP2;ratioP2
16804;SDS011;8520;50.102;20.010;2023-11-21T00:00:03;89.93;;;84.63;;
16804;SDS011;8520;50.102;20.010;2023-11-21T00:02:38;88.67;;;83.53;;
16804;SDS011;8520;50.102;20.010;2023-11-21T00:05:07;90.20;;;84.80;;
16804;SDS011;8520;50.102;20.010;2023-11-21T00:07:38;90.47;;;85.17;;
16804;SDS011;8520;50.102;20.010;2023-11-21T00:10:06;90.80;;;85.50;;
16804;SDS011;8520;50.102;20.010;2023-11-21T00:12:35;90.03;;;84.63;;
16804;SDS011;8520;50.102;20.010;2023-11-21T00:15:03;90.17;;;84.87;;
16804;SDS011;8520;50.102;20.010;2023-11-21T00:17:32;90.57;;;85.27;;
16804;SDS011;8520;50.102;20.010;2023-11-21T00:20:00;90.67;;;85.30;;
16804;SDS011;8520;50.102;20.010;2023-11-21T00:22:30;91.97;;;86.57;;
16804;SDS011;8520;50.102;20.010;2023-11-21T00:25:00;89.13;;;83.97;;
16804;SDS011;8520;50.102;20.010;2023-11-21T00:27:30;89.80;;;84.50;;
16804;SDS011;8520;50.102;20.010;2023-11-21T00:29:58;89.40;;;84.33;;
16804;SDS011;8520;50.102;20.010;2023-11-21T00:32:25;91.13;;;85.73;;
16804;SDS011;8520;50.102;20.010;2023-11-21T00:34:54;89.53;;;84.40;;
16804;SDS011;8520;50.102;20.010;2023-11-21T00:37:22;89.57;;;84.43;;
16804;SDS011;8520;50.102;20.010;2023-11-21T00:39:50;88.67;;;83.57;;
16804;SDS011;8520;50.102;20.010;2023-11-21T00:42:19;89.17;;;83.97;;
16804;SDS011;8520;50.102;20.010;2023-11-21T00:44:48;88.57;;;83.40;;
16804;SDS011;8520;50.102;20.010;2023-11-21T00:47:16;89.53;;;84.43;;
16804;SDS011;8520;50.102;20.010;2023-11-21T00:49:44;88.80;;;83.80;;
16804;SDS011;8520;50.102;20.010;2023-11-21T00:52:12;88.60;;;83.50;;
16804;SDS011;8520;50.102;20.010;2023-11-21T00:54:40;87.93;;;82.83;;
16804;SDS011;8520;50.102;20.010;2023-11-21T00:57:08;87.77;;;82.87;;
16804;SDS011;8520;50.102;20.010;2023-11-21T00:59:39;87.87;;;82.83;;
16804;SDS011;8520;50.102;20.010;2023-11-21T01:02:07;86.93;;;82.07;;
16804;SDS011;8520;50.102;20.010;2023-11-21T01:04:37;85.53;;;80.83;;
16804;SDS011;8520;50.102;20.010;2023-11-21T01:07:05;86.77;;;81.90;;
16804;SDS011;8520;50.102;20.010;2023-11-21T01:09:33;87.07;;;82.13;;
16804;SDS011;8520;50.102;20.010;2023-11-21T01:12:01;85.63;;;80.83;;
16804;SDS011;8520;50.102;20.010;2023-11-21T01:14:29;86.03;;;81.37;;
16804;SDS011;8520;50.102;20.010;2023-11-21T01:16:58;85.70;;;80.93;;
16804;SDS011;8520;50.102;20.010;2023-11-21T01:19:26;85.70;;;80.97;;
16804;SDS011;8520;50.102;20.010;2023-11-21T01:21:56;85.97;;;81.27;;
16804;SDS011;8520;50.102;20.010;2023-11-21T01:24:24;83.33;;;78.83;;
16804;SDS011;8520;50.102;20.010;2023-11-21T01:26:52;83.90;;;79.30;;
16804;SDS011;8520;50.102;20.010;2023-11-21T01:29:20;83.57;;;79.07;;
16804;SDS011;8520;50.102;20.010;2023-11-21T01:31:48;83.33;;;78.80;;
16804;SDS011;8520;50.102;20.010;2023-11-21T01:34:17;84.20;;;79.60;;
16804;SDS011;8520;50.102;20.010;2023-11-21T01:36:46;82.33;;;77.93;;
16804;SDS011;8520;50.102;20.010;2023-11-21T01:39:14;81.83;;;77.47;;
16804;SDS011;8520;50.102;20.010;2023-11-21T01:41:42;81.70;;;77.30;;
16804;SDS011;8520;50.102;20.010;2023-11-21T01:44:11;80.83;;;76.53;;
16804;SDS011;8520;50.102;20.010;2023-11-21T01:46:39;79.77;;;75.43;;
16804;SDS011;8520;50.102;20.010;2023-11-21T01:49:08;79.63;;;75.37;;
16804;SDS011;8520;50.102;20.010;2023-11-21T01:51:42;78.80;;;74.67;;
16804;SDS011;8520;50.102;20.010;2023-11-21T01:54:11;78.57;;;74.27;;
16804;SDS011;8520;50.102;20.010;2023-11-21T01:56:44;78.60;;;74.40;;
16804;SDS011;8520;50.102;20.010;2023-11-21T01:59:14;77.80;;;73.67;;
16804;SDS011;8520;50.102;20.010;2023-11-21T02:01:43;77.37;;;73.37;;
16804;SDS011;8520;50.102;20.010;2023-11-21T02:04:10;76.87;;;72.77;;
16804;SDS011;8520;50.102;20.010;2023-11-21T02:06:38;77.40;;;73.30;;
16804;SDS011;8520;50.102;20.010;2023-11-21T02:09:08;77.90;;;73.80;;
16804;SDS011;8520;50.102;20.010;2023-11-21T02:11:36;77.57;;;73.40;;
16804;SDS011;8520;50.102;20.010;2023-11-21T02:14:05;77.03;;;72.83;;
16804;SDS011;8520;50.102;20.010;2023-11-21T02:16:35;77.10;;;73.00;;
16804;SDS011;8520;50.102;20.010;2023-11-21T02:19:03;77.87;;;73.47;;
16804;SDS011;8520;50.102;20.010;2023-11-21T02:21:35;78.73;;;74.63;;
16804;SDS011;8520;50.102;20.010;2023-11-21T02:24:08;78.80;;;74.60;;
16804;SDS011;8520;50.102;20.010;2023-11-21T02:26:36;80.07;;;75.57;;
16804;SDS011;8520;50.102;20.010;2023-11-21T02:29:04;80.97;;;76.57;;
16804;SDS011;8520;50.102;20.010;2023-11-21T02:31:32;81.73;;;77.13;;
16804;SDS011;8520;50.102;20.010;2023-11-21T02:34:00;83.40;;;78.70;;
16804;SDS011;8520;50.102;20.010;2023-11-21T02:36:30;82.70;;;77.87;;
16804;SDS011;8520;50.102;20.010;2023-11-21T02:38:58;84.93;;;80.23;;
16804;SDS011;8520;50.102;20.010;2023-11-21T02:41:27;85.70;;;80.60;;
16804;SDS011;8520;50.102;20.010;2023-11-21T02:43:55;84.93;;;80.13;;
16804;SDS011;8520;50.102;20.010;2023-11-21T02:46:23;85.10;;;80.30;;
16804;SDS011;8520;50.102;20.010;2023-11-21T02:48:51;86.40;;;81.40;;
16804;SDS011;8520;50.102;20.010;2023-11-21T02:51:20;86.27;;;81.37;;
16804;SDS011;8520;50.102;20.010;2023-11-21T02:53:48;85.57;;;80.77;;
16804;SDS011;8520;50.102;20.010;2023-11-21T02:56:17;84.87;;;80.07;;
16804;SDS011;8520;50.102;20.010;2023-11-21T02:58:46;83.13;;;78.47;;
16804;SDS011;8520;50.102;20.010;2023-11-21T03:01:14;81.87;;;77.37;;
16804;SDS011;8520;50.102;20.010;2023-11-21T03:03:43;80.83;;;76.33;;
16804;SDS011;8520;50.102;20.010;2023-11-21T03:06:12;79.97;;;75.50;;
16804;SDS011;8520;50.102;20.010;2023-11-21T03:08:41;79.23;;;74.63;;
16804;SDS011;8520;50.102;20.010;2023-11-21T03:11:09;77.70;;;73.40;;
16804;SDS011;8520;50.102;20.010;2023-11-21T03:13:37;75.83;;;71.63;;
16804;SDS011;8520;50.102;20.010;2023-11-21T03:16:07;74.60;;;70.50;;
16804;SDS011;8520;50.102;20.010;2023-11-21T03:18:35;73.20;;;69.40;;
16804;SDS011;8520;50.102;20.010;2023-11-21T03:21:03;73.73;;;69.63;;
16804;SDS011;8520;50.102;20.010;2023-11-21T03:23:30;72.77;;;68.97;;
16804;SDS011;8520;50.102;20.010;2023-11-21T03:25:58;72.33;;;68.37;;
16804;SDS011;8520;50.102;20.010;2023-11-21T03:28:26;71.93;;;68.23;;
16804;SDS011;8520;50.102;20.010;2023-11-21T03:30:54;71.70;;;67.90;;
16804;SDS011;8520;50.102;20.010;2023-11-21T03:33:24;72.00;;;68.10;;
16804;SDS011;8520;50.102;20.010;2023-11-21T03:35:52;72.43;;;68.37;;
16804;SDS011;8520;50.102;20.010;2023-11-21T03:38:20;71.37;;;67.57;;
16804;SDS011;8520;50.102;20.010;2023-11-21T03:40:49;72.00;;;68.10;;
16804;SDS011;8520;50.102;20.010;2023-11-21T03:43:17;71.83;;;68.07;;
16804;SDS011;8520;50.102;20.010;2023-11-21T03:45:44;71.83;;;68.00;;
16804;SDS011;8520;50.102;20.010;2023-11-21T03:48:12;72.93;;;69.03;;
16804;SDS011;8520;50.102;20.010;2023-11-21T03:50:42;72.93;;;69.03;;
16804;SDS011;8520;50.102;20.010;2023-11-21T03:53:09;73.13;;;69.17;;
16804;SDS011;8520;50.102;20.010;2023-11-21T03:55:37;73.30;;;69.43;;
16804;SDS011;8520;50.102;20.010;2023-11-21T03:58:05;72.53;;;68.63;;
16804;SDS011;8520;50.102;20.010;2023-11-21T04:00:33;71.27;;;67.57;;
16804;SDS011;8520;50.102;20.010;2023-11-21T04:03:01;70.60;;;66.93;;
16804;SDS011;8520;50.102;20.010;2023-11-21T04:05:29;70.30;;;66.73;;
16804;SDS011;8520;50.102;20.010;2023-11-21T04:07:59;69.67;;;66.07;;
16804;SDS011;8520;50.102;20.010;2023-11-21T04:10:26;69.43;;;65.73;;
16804;SDS011;8520;50.102;20.010;2023-11-21T04:12:56;69.53;;;65.83;;
16804;SDS011;8520;50.102;20.010;2023-11-21T04:15:24;69.33;;;65.70;;
16804;SDS011;8520;50.102;20.010;2023-11-21T04:17:52;69.37;;;65.70;;
16804;SDS011;8520;50.102;20.010;2023-11-21T04:20:20;67.87;;;64.37;;
16804;SDS011;8520;50.102;20.010;2023-11-21T04:22:50;68.73;;;65.23;;
16804;SDS011;8520;50.102;20.010;2023-11-21T04:25:19;68.37;;;64.77;;
16804;SDS011;8520;50.102;20.010;2023-11-21T04:27:50;68.80;;;65.20;;
16804;SDS011;8520;50.102;20.010;2023-11-21T04:30:18;68.50;;;65.00;;
16804;SDS011;8520;50.102;20.010;2023-11-21T04:32:46;68.80;;;65.17;;
16804;SDS011;8520;50.102;20.010;2023-11-21T04:35:13;70.37;;;66.47;;
16804;SDS011;8520;50.102;20.010;2023-11-21T04:37:41;70.13;;;66.53;;
16804;SDS011;8520;50.102;20.010;2023-11-21T04:40:10;71.60;;;67.77;;
16804;SDS011;8520;50.102;20.010;2023-11-21T04:42:39;71.10;;;67.37;;
16804;SDS011;8520;50.102;20.010;2023-11-21T04:45:08;72.70;;;68.90;;
16804;SDS011;8520;50.102;20.010;2023-11-21T04:47:39;72.87;;;68.87;;
16804;SDS011;8520;50.102;20.010;2023-11-21T04:50:07;73.03;;;69.23;;
16804;SDS011;8520;50.102;20.010;2023-11-21T04:52:35;73.77;;;70.00;;
16804;SDS011;8520;50.102;20.010;2023-11-21T04:55:03;73.47;;;69.47;;
16804;SDS011;8520;50.102;20.010;2023-11-21T04:57:33;74.63;;;70.73;;
16804;SDS011;8520;50.102;20.010;2023-11-21T05:00:02;74.57;;;70.60;;
16804;SDS011;8520;50.102;20.010;2023-11-21T05:02:32;75.53;;;71.40;;
16804;SDS011;8520;50.102;20.010;2023-11-21T05:05:02;74.47;;;70.47;;
16804;SDS011;8520;50.102;20.010;2023-11-21T05:07:32;74.03;;;70.07;;
16804;SDS011;8520;50.102;20.010;2023-11-21T05:10:03;73.93;;;69.87;;
16804;SDS011;8520;50.102;20.010;2023-11-21T05:12:34;74.10;;;70.00;;
16804;SDS011;8520;50.102;20.010;2023-11-21T05:15:05;75.73;;;71.60;;
16804;SDS011;8520;50.102;20.010;2023-11-21T05:17:36;75.13;;;70.97;;
16804;SDS011;8520;50.102;20.010;2023-11-21T05:20:06;77.20;;;72.87;;
16804;SDS011;8520;50.102;20.010;2023-11-21T05:22:36;76.90;;;72.70;;
16804;SDS011;8520;50.102;20.010;2023-11-21T05:25:05;76.67;;;72.50;;
16804;SDS011;8520;50.102;20.010;2023-11-21T05:27:34;78.03;;;73.60;;
16804;SDS011;8520;50.102;20.010;2023-11-21T05:30:02;76.40;;;72.37;;
16804;SDS011;8520;50.102;20.010;2023-11-21T05:32:33;77.30;;;73.17;;
16804;SDS011;8520;50.102;20.010;2023-11-21T05:35:01;76.80;;;72.63;;
16804;SDS011;8520;50.102;20.010;2023-11-21T05:37:29;77.53;;;73.33;;
16804;SDS011;8520;50.102;20.010;2023-11-21T05:39:57;77.53;;;73.27;;
16804;SDS011;8520;50.102;20.010;2023-11-21T05:42:26;77.57;;;73.37;;
16804;SDS011;8520;50.102;20.010;2023-11-21T05:44:54;79.43;;;74.93;;
16804;SDS011;8520;50.102;20.010;2023-11-21T05:47:22;78.00;;;73.70;;
16804;SDS011;8520;50.102;20.010;2023-11-21T05:49:51;77.33;;;73.23;;
16804;SDS011;8520;50.102;20.010;2023-11-21T05:52:19;77.90;;;73.70;;
16804;SDS011;8520;50.102;20.010;2023-11-21T05:54:48;78.37;;;73.93;;
16804;SDS011;8520;50.102;20.010;2023-11-21T05:57:16;78.13;;;73.83;;
16804;SDS011;8520;50.102;20.010;2023-11-21T05:59:44;79.07;;;74.83;;
16804;SDS011;8520;50.102;20.010;2023-11-21T06:02:12;79.23;;;74.83;;
16804;SDS011;8520;50.102;20.010;2023-11-21T06:04:40;78.00;;;73.83;;
16804;SDS011;8520;50.102;20.010;2023-11-21T06:07:10;79.90;;;75.50;;
16804;SDS011;8520;50.102;20.010;2023-11-21T06:09:38;78.53;;;74.33;;
16804;SDS011;8520;50.102;20.010;2023-11-21T06:12:06;80.03;;;75.73;;
16804;SDS011;8520;50.102;20.010;2023-11-21T06:14:34;79.30;;;75.00;;
16804;SDS011;8520;50.102;20.010;2023-11-21T06:17:03;79.23;;;74.93;;
16804;SDS011;8520;50.102;20.010;2023-11-21T06:19:31;79.63;;;75.13;;
16804;SDS011;8520;50.102;20.010;2023-11-21T06:21:59;80.20;;;76.00;;
16804;SDS011;8520;50.102;20.010;2023-11-21T06:24:29;78.97;;;74.77;;
16804;SDS011;8520;50.102;20.010;2023-11-21T06:26:57;79.33;;;74.93;;
16804;SDS011;8520;50.102;20.010;2023-11-21T06:29:25;79.30;;;75.00;;
16804;SDS011;8520;50.102;20.010;2023-11-21T06:31:53;80.03;;;75.63;;
16804;SDS011;8520;50.102;20.010;2023-11-21T06:34:21;78.50;;;74.30;;
16804;SDS011;8520;50.102;20.010;2023-11-21T06:36:49;79.70;;;75.40;;
16804;SDS011;8520;50.102;20.010;2023-11-21T06:39:18;80.93;;;76.63;;
16804;SDS011;8520;50.102;20.010;2023-11-21T06:41:50;80.27;;;76.07;;
16804;SDS011;8520;50.102;20.010;2023-11-21T06:44:18;80.33;;;76.03;;
16804;SDS011;8520;50.102;20.010;2023-11-21T06:46:46;81.37;;;76.97;;
16804;SDS011;8520;50.102;20.010;2023-11-21T06:49:15;81.00;;;76.70;;
16804;SDS011;8520;50.102;20.010;2023-11-21T06:51:43;81.93;;;77.40;;
16804;SDS011;8520;50.102;20.010;2023-11-21T06:54:11;82.70;;;78.30;;
16804;SDS011;8520;50.102;20.010;2023-11-21T06:56:41;82.73;;;78.40;;
16804;SDS011;8520;50.102;20.010;2023-11-21T06:59:10;83.23;;;78.80;;
16804;SDS011;8520;50.102;20.010;2023-11-21T07:01:38;82.77;;;78.17;;
16804;SDS011;8520;50.102;20.010;2023-11-21T07:04:08;83.10;;;78.60;;
16804;SDS011;8520;50.102;20.010;2023-11-21T07:06:36;84.13;;;79.47;;
16804;SDS011;8520;50.102;20.010;2023-11-21T07:09:04;83.97;;;79.47;;
16804;SDS011;8520;50.102;20.010;2023-11-21T07:11:32;85.50;;;80.70;;
16804;SDS011;8520;50.102;20.010;2023-11-21T07:14:01;84.30;;;79.70;;
16804;SDS011;8520;50.102;20.010;2023-11-21T07:16:35;84.30;;;79.70;;
16804;SDS011;8520;50.102;20.010;2023-11-21T07:19:04;85.90;;;81.20;;
16804;SDS011;8520;50.102;20.010;2023-11-21T07:21:32;85.80;;;81.20;;
16804;SDS011;8520;50.102;20.010;2023-11-21T07:24:00;87.17;;;81.97;;
16804;SDS011;8520;50.102;20.010;2023-11-21T07:26:28;85.87;;;81.07;;
16804;SDS011;8520;50.102;20.010;2023-11-21T07:28:56;86.87;;;81.97;;
16804;SDS011;8520;50.102;20.010;2023-11-21T07:31:24;85.33;;;80.63;;
16804;SDS011;8520;50.102;20.010;2023-11-21T07:33:54;85.77;;;80.87;;
16804;SDS011;8520;50.102;20.010;2023-11-21T07:36:24;86.57;;;81.87;;
16804;SDS011;8520;50.102;20.010;2023-11-21T07:38:52;85.77;;;81.03;;
16804;SDS011;8520;50.102;20.010;2023-11-21T07:41:20;85.47;;;80.73;;
16804;SDS011;8520;50.102;20.010;2023-11-21T07:43:57;85.10;;;80.50;;
16804;SDS011;8520;50.102;20.010;2023-11-21T07:46:25;85.93;;;81.23;;
16804;SDS011;8520;50.102;20.010;2023-11-21T07:48:55;85.23;;;80.43;;
16804;SDS011;8520;50.102;20.010;2023-11-21T07:51:23;83.27;;;78.67;;
16804;SDS011;8520;50.102;20.010;2023-11-21T07:53:51;83.07;;;78.37;;
16804;SDS011;8520;50.102;20.010;2023-11-21T07:56:19;83.63;;;78.93;;
16804;SDS011;8520;50.102;20.010;2023-11-21T07:58:47;84.57;;;79.93;;
16804;SDS011;8520;50.102;20.010;2023-11-21T08:01:19;82.70;;;78.13;;
16804;SDS011;8520;50.102;20.010;2023-11-21T08:03:47;83.60;;;78.90;;
16804;SDS011;8520;50.102;20.010;2023-11-21T08:06:19;83.90;;;79.27;;
16804;SDS011;8520;50.102;20.010;2023-11-21T08:08:47;85.57;;;80.57;;
16804;SDS011;8520;50.102;20.010;2023-11-21T08:11:15;85.13;;;80.43;;
16804;SDS011;8520;50.102;20.010;2023-11-21T08:13:45;85.80;;;80.70;;
16804;SDS011;8520;50.102;20.010;2023-11-21T08:16:14;85.73;;;80.93;;
16804;SDS011;8520;50.102;20.010;2023-11-21T08:18:43;86.80;;;82.00;;
16804;SDS011;8520;50.102;20.010;2023-11-21T08:21:12;86.87;;;81.77;;
16804;SDS011;8520;50.102;20.010;2023-11-21T08:23:41;87.70;;;82.60;;
16804;SDS011;8520;50.102;20.010;2023-11-21T08:26:09;87.40;;;82.37;;
16804;SDS011;8520;50.102;20.010;2023-11-21T08:28:37;87.00;;;82.10;;
16804;SDS011;8520;50.102;20.010;2023-11-21T08:31:05;86.20;;;81.37;;
16804;SDS011;8520;50.102;20.010;2023-11-21T08:33:33;88.00;;;82.97;;
16804;SDS011;8520;50.102;20.010;2023-11-21T08:36:01;86.10;;;81.30;;
16804;SDS011;8520;50.102;20.010;2023-11-21T08:38:29;87.37;;;82.17;;
16804;SDS011;8520;50.102;20.010;2023-11-21T08:40:58;84.83;;;80.00;;
16804;SDS011;8520;50.102;20.010;2023-11-21T08:43:26;87.73;;;82.73;;
16804;SDS011;8520;50.102;20.010;2023-11-21T08:45:55;85.83;;;81.07;;
16804;SDS011;8520;50.102;20.010;2023-11-21T08:48:23;84.23;;;79.43;;
16804;SDS011;8520;50.102;20.010;2023-11-21T08:50:51;81.80;;;77.30;;
16804;SDS011;8520;50.102;20.010;2023-11-21T08:53:19;80.90;;;76.50;;
16804;SDS011;8520;50.102;20.010;2023-11-21T08:55:47;80.97;;;76.57;;
16804;SDS011;8520;50.102;20.010;2023-11-21T08:58:18;80.67;;;76.23;;
16804;SDS011;8520;50.102;20.010;2023-11-21T09:00:46;82.17;;;77.67;;
16804;SDS011;8520;50.102;20.010;2023-11-21T09:03:13;82.40;;;77.90;;
16804;SDS011;8520;50.102;20.010;2023-11-21T09:05:41;84.30;;;79.30;;
16804;SDS011;8520;50.102;20.010;2023-11-21T09:08:09;82.13;;;77.67;;
16804;SDS011;8520;50.102;20.010;2023-11-21T09:10:37;84.07;;;79.47;;
16804;SDS011;8520;50.102;20.010;2023-11-21T09:13:06;85.63;;;80.90;;
16804;SDS011;8520;50.102;20.010;2023-11-21T09:15:37;86.70;;;81.63;;
16804;SDS011;8520;50.102;20.010;2023-11-21T09:18:05;86.73;;;81.83;;
16804;SDS011;8520;50.102;20.010;2023-11-21T09:20:33;87.40;;;82.40;;
16804;SDS011;8520;50.102;20.010;2023-11-21T09:23:01;86.87;;;82.03;;
16804;SDS011;8520;50.102;20.010;2023-11-21T09:25:29;88.10;;;83.03;;
16804;SDS011;8520;50.102;20.010;2023-11-21T09:27:57;89.60;;;84.30;;
16804;SDS011;8520;50.102;20.010;2023-11-21T09:30:24;91.57;;;86.07;;
16804;SDS011;8520;50.102;20.010;2023-11-21T09:32:54;92.33;;;86.60;;
16804;SDS011;8520;50.102;20.010;2023-11-21T09:35:22;93.83;;;87.93;;
16804;SDS011;8520;50.102;20.010;2023-11-21T09:37:50;94.77;;;88.93;;
16804;SDS011;8520;50.102;20.010;2023-11-21T09:40:20;93.13;;;87.53;;
16804;SDS011;8520;50.102;20.010;2023-11-21T09:42:51;97.00;;;90.80;;
16804;SDS011;8520;50.102;20.010;2023-11-21T09:45:23;96.57;;;90.50;;
16804;SDS011;8520;50.102;20.010;2023-11-21T09:47:54;97.73;;;91.73;;
16804;SDS011;8520;50.102;20.010;2023-11-21T09:50:23;96.80;;;90.90;;
16804;SDS011;8520;50.102;20.010;2023-11-21T09:52:54;97.93;;;91.80;;
16804;SDS011;8520;50.102;20.010;2023-11-21T09:55:24;97.33;;;91.27;;
16804;SDS011;8520;50.102;20.010;2023-11-21T09:57:56;98.77;;;92.50;;
16804;SDS011;8520;50.102;20.010;2023-11-21T10:00:24;99.23;;;92.87;;
16804;SDS011;8520;50.102;20.010;2023-11-21T10:02:55;95.73;;;89.83;;
16804;SDS011;8520;50.102;20.010;2023-11-21T10:05:23;96.17;;;90.10;;
16804;SDS011;8520;50.102;20.010;2023-11-21T10:07:55;93.53;;;87.77;;
16804;SDS011;8520;50.102;20.010;2023-11-21T10:10:24;94.57;;;88.77;;
16804;SDS011;8520;50.102;20.010;2023-11-21T10:12:53;93.30;;;87.60;;
16804;SDS011;8520;50.102;20.010;2023-11-21T10:15:23;93.80;;;88.00;;
16804;SDS011;8520;50.102;20.010;2023-11-21T10:17:52;93.50;;;87.67;;
16804;SDS011;8520;50.102;20.010;2023-11-21T10:20:21;91.53;;;85.93;;
16804;SDS011;8520;50.102;20.010;2023-11-21T10:22:51;90.90;;;85.27;;
16804;SDS011;8520;50.102;20.010;2023-11-21T10:25:19;87.40;;;82.20;;
16804;SDS011;8520;50.102;20.010;2023-11-21T10:27:47;84.77;;;79.50;;
16804;SDS011;8520;50.102;20.010;2023-11-21T10:30:17;81.43;;;76.40;;
16804;SDS011;8520;50.102;20.010;2023-11-21T10:32:46;78.00;;;73.50;;
16804;SDS011;8520;50.102;20.010;2023-11-21T10:35:14;77.57;;;72.93;;
16804;SDS011;8520;50.102;20.010;2023-11-21T10:37:43;76.73;;;72.33;;
16804;SDS011;8520;50.102;20.010;2023-11-21T10:40:11;75.73;;;71.20;;
16804;SDS011;8520;50.102;20.010;2023-11-21T10:42:39;75.70;;;70.90;;
16804;SDS011;8520;50.102;20.010;2023-11-21T10:45:08;72.20;;;68.10;;
16804;SDS011;8520;50.102;20.010;2023-11-21T10:47:40;67.47;;;63.47;;
16804;SDS011;8520;50.102;20.010;2023-11-21T10:50:08;68.00;;;63.83;;
16804;SDS011;8520;50.102;20.010;2023-11-21T10:52:39;67.20;;;63.20;;
16804;SDS011;8520;50.102;20.010;2023-11-21T10:55:17;68.33;;;64.33;;
16804;SDS011;8520;50.102;20.010;2023-11-21T10:57:48;65.07;;;60.97;;
16804;SDS011;8520;50.102;20.010;2023-11-21T11:00:16;63.13;;;59.53;;
16804;SDS011;8520;50.102;20.010;2023-11-21T11:02:48;59.60;;;56.30;;
16804;SDS011;8520;50.102;20.010;2023-11-21T11:05:19;59.10;;;55.70;;
16804;SDS011;8520;50.102;20.010;2023-11-21T11:07:47;58.57;;;55.27;;
16804;SDS011;8520;50.102;20.010;2023-11-21T11:10:20;57.87;;;54.57;;
16804;SDS011;8520;50.102;20.010;2023-11-21T11:12:49;57.40;;;54.20;;
16804;SDS011;8520;50.102;20.010;2023-11-21T11:15:19;56.20;;;53.20;;
16804;SDS011;8520;50.102;20.010;2023-11-21T11:17:47;54.80;;;51.40;;
16804;SDS011;8520;50.102;20.010;2023-11-21T11:20:16;55.60;;;52.60;;
16804;SDS011;8520;50.102;20.010;2023-11-21T11:22:47;55.27;;;52.23;;
16804;SDS011;8520;50.102;20.010;2023-11-21T11:25:24;55.90;;;52.97;;
16804;SDS011;8520;50.102;20.010;2023-11-21T11:28:01;56.43;;;53.30;;
16804;SDS011;8520;50.102;20.010;2023-11-21T11:30:40;57.17;;;54.07;;
16804;SDS011;8520;50.102;20.010;2023-11-21T11:33:12;57.93;;;54.83;;
16804;SDS011;8520;50.102;20.010;2023-11-21T11:35:46;60.33;;;57.13;;
16804;SDS011;8520;50.102;20.010;2023-11-21T11:38:17;62.20;;;58.70;;
16804;SDS011;8520;50.102;20.010;2023-11-21T11:40:48;61.90;;;58.40;;
16804;SDS011;8520;50.102;20.010;2023-11-21T11:43:24;62.80;;;59.40;;
16804;SDS011;8520;50.102;20.010;2023-11-21T11:45:55;64.30;;;60.50;;
16804;SDS011;8520;50.102;20.010;2023-11-21T11:48:23;64.60;;;61.00;;
16804;SDS011;8520;50.102;20.010;2023-11-21T11:51:01;64.23;;;60.80;;
16804;SDS011;8520;50.102;20.010;2023-11-21T11:53:35;67.73;;;63.93;;
16804;SDS011;8520;50.102;20.010;2023-11-21T11:56:24;69.67;;;65.67;;
16804;SDS011;8520;50.102;20.010;2023-11-21T11:58:53;70.33;;;66.30;;
16804;SDS011;8520;50.102;20.010;2023-11-21T12:01:21;67.20;;;63.40;;
16804;SDS011;8520;50.102;20.010;2023-11-21T12:06:36;69.23;;;65.33;;
16804;SDS011;8520;50.102;20.010;2023-11-21T12:09:04;67.47;;;63.80;;
16804;SDS011;8520;50.102;20.010;2023-11-21T12:11:33;63.27;;;59.87;;
16804;SDS011;8520;50.102;20.010;2023-11-21T12:14:02;62.87;;;59.30;;
16804;SDS011;8520;50.102;20.010;2023-11-21T12:16:32;61.93;;;58.47;;
16804;SDS011;8520;50.102;20.010;2023-11-21T12:19:00;62.07;;;58.40;;
16804;SDS011;8520;50.102;20.010;2023-11-21T12:21:28;59.97;;;56.80;;
16804;SDS011;8520;50.102;20.010;2023-11-21T12:23:58;60.20;;;56.80;;
16804;SDS011;8520;50.102;20.010;2023-11-21T12:26:26;57.10;;;54.00;;
16804;SDS011;8520;50.102;20.010;2023-11-21T12:28:55;54.00;;;51.20;;
16804;SDS011;8520;50.102;20.010;2023-11-21T12:31:24;54.17;;;51.27;;
16804;SDS011;8520;50.102;20.010;2023-11-21T12:33:53;52.93;;;50.03;;
16804;SDS011;8520;50.102;20.010;2023-11-21T12:36:22;54.17;;;51.17;;
16804;SDS011;8520;50.102;20.010;2023-11-21T12:38:50;54.40;;;51.50;;
16804;SDS011;8520;50.102;20.010;2023-11-21T12:41:18;52.43;;;49.73;;
16804;SDS011;8520;50.102;20.010;2023-11-21T12:43:47;51.67;;;48.70;;
16804;SDS011;8520;50.102;20.010;2023-11-21T12:46:17;51.93;;;49.23;;
16804;SDS011;8520;50.102;20.010;2023-11-21T12:48:46;53.37;;;50.47;;
16804;SDS011;8520;50.102;20.010;2023-11-21T12:51:15;52.67;;;49.93;;
16804;SDS011;8520;50.102;20.010;2023-11-21T12:53:43;52.37;;;49.53;;
16804;SDS011;8520;50.102;20.010;2023-11-21T12:56:11;53.23;;;50.13;;
16804;SDS011;8520;50.102;20.010;2023-11-21T12:58:39;52.30;;;49.70;;
16804;SDS011;8520;50.102;20.010;2023-11-21T13:01:08;52.20;;;49.57;;
16804;SDS011;8520;50.102;20.010;2023-11-21T13:03:40;52.47;;;49.67;;
16804;SDS011;8520;50.102;20.010;2023-11-21T13:06:11;52.67;;;49.90;;
16804;SDS011;8520;50.102;20.010;2023-11-21T13:08:40;52.90;;;50.00;;
16804;SDS011;8520;50.102;20.010;2023-11-21T13:11:08;52.37;;;49.53;;
16804;SDS011;8520;50.102;20.010;2023-11-21T13:13:40;53.07;;;50.07;;
16804;SDS011;8520;50.102;20.010;2023-11-21T13:16:08;53.70;;;50.33;;
16804;SDS011;8520;50.102;20.010;2023-11-21T13:18:37;51.47;;;48.60;;
16804;SDS011;8520;50.102;20.010;2023-11-21T13:21:08;52.97;;;49.87;;
16804;SDS011;8520;50.102;20.010;2023-11-21T13:23:39;54.93;;;51.63;;
16804;SDS011;8520;50.102;20.010;2023-11-21T13:26:08;54.73;;;51.53;;
16804;SDS011;8520;50.102;20.010;2023-11-21T13:28:36;55.87;;;52.40;;
16804;SDS011;8520;50.102;20.010;2023-11-21T13:31:05;55.27;;;52.00;;
16804;SDS011;8520;50.102;20.010;2023-11-21T13:33:47;55.80;;;52.60;;
16804;SDS011;8520;50.102;20.010;2023-11-21T13:36:23;55.73;;;52.47;;
16804;SDS011;8520;50.102;20.010;2023-11-21T13:38:52;56.80;;;53.70;;
16804;SDS011;8520;50.102;20.010;2023-11-21T13:41:20;59.70;;;56.33;;
16804;SDS011;8520;50.102;20.010;2023-11-21T13:43:54;58.40;;;55.30;;
16804;SDS011;8520;50.102;20.010;2023-11-21T13:46:30;56.47;;;53.27;;
16804;SDS011;8520;50.102;20.010;2023-11-21T13:49:04;49.07;;;46.37;;
16804;SDS011;8520;50.102;20.010;2023-11-21T13:51:37;40.13;;;37.83;;
16804;SDS011;8520;50.102;20.010;2023-11-21T13:54:09;30.10;;;28.53;;
16804;SDS011;8520;50.102;20.010;2023-11-21T13:56:37;25.80;;;24.50;;
16804;SDS011;8520;50.102;20.010;2023-11-21T13:59:06;25.47;;;24.07;;
16804;SDS011;8520;50.102;20.010;2023-11-21T14:01:45;23.83;;;22.63;;
16804;SDS011;8520;50.102;20.010;2023-11-21T14:04:22;21.87;;;20.97;;
16804;SDS011;8520;50.102;20.010;2023-11-21T14:07:07;24.03;;;22.73;;
16804;SDS011;8520;50.102;20.010;2023-11-21T14:09:49;23.83;;;22.73;;
16804;SDS011;8520;50.102;20.010;2023-11-21T14:12:19;25.10;;;23.80;;
16804;SDS011;8520;50.102;20.010;2023-11-21T14:14:46;25.80;;;24.50;;
16804;SDS011;8520;50.102;20.010;2023-11-21T14:17:15;24.30;;;23.00;;
16804;SDS011;8520;50.102;20.010;2023-11-21T14:19:43;23.87;;;22.77;;
16804;SDS011;8520;50.102;20.010;2023-11-21T14:22:13;23.33;;;22.23;;
16804;SDS011;8520;50.102;20.010;2023-11-21T14:24:40;24.43;;;23.23;;
16804;SDS011;8520;50.102;20.010;2023-11-21T14:27:13;24.40;;;23.20;;
16804;SDS011;8520;50.102;20.010;2023-11-21T14:29:41;25.77;;;24.47;;
16804;SDS011;8520;50.102;20.010;2023-11-21T14:32:11;26.80;;;25.60;;
16804;SDS011;8520;50.102;20.010;2023-11-21T14:34:41;27.30;;;26.00;;